createdAt,value
2022-07-31T00:00:20.531Z,6.32
2022-07-31T00:02:47.088Z,5.15
2022-07-31T00:05:13.965Z,7.32
2022-07-31T00:07:40.703Z,3.58
2022-07-31T00:10:08.224Z,5.75
2022-07-31T00:12:35.123Z,3.97
2022-07-31T00:15:04.145Z,4.45
2022-07-31T00:17:32.590Z,3.75
2022-07-31T00:19:59.448Z,3.00
2022-07-31T00:22:25.980Z,3.33
2022-07-31T00:24:52.463Z,4.63
2022-07-31T00:27:18.946Z,4.57
2022-07-31T00:29:45.447Z,4.22
2022-07-31T00:32:11.967Z,3.63
2022-07-31T00:34:38.492Z,7.97
2022-07-31T00:37:05.515Z,3.60
2022-07-31T00:39:32.652Z,5.18
2022-07-31T00:41:59.243Z,2.67
2022-07-31T00:44:26.033Z,3.67
2022-07-31T00:46:52.718Z,4.38
2022-07-31T00:49:19.882Z,3.50
2022-07-31T00:51:46.818Z,4.18
2022-07-31T00:54:18.620Z,3.30
2022-07-31T00:56:50.290Z,7.35
2022-07-31T00:59:16.897Z,5.32
2022-07-31T01:01:51.083Z,2.17
2022-07-31T01:04:19.023Z,3.90
2022-07-31T01:06:47.100Z,4.50
2022-07-31T01:09:14.694Z,3.33
2022-07-31T01:12:06.020Z,6.20
2022-07-31T01:14:38.883Z,4.13
2022-07-31T01:17:07.181Z,5.68
2022-07-31T01:19:43.618Z,3.22
2022-07-31T01:22:44.186Z,2.72
2022-07-31T01:25:13.680Z,6.47
2022-07-31T01:28:27.732Z,4.80
2022-07-31T01:31:27.747Z,4.13
2022-07-31T01:34:08.203Z,6.45
2022-07-31T01:36:39.591Z,3.70
2022-07-31T01:39:06.389Z,3.20
2022-07-31T01:41:39.580Z,4.88
2022-07-31T01:44:07.833Z,3.95
2022-07-31T01:46:43.685Z,9.00
2022-07-31T01:49:12.517Z,3.72
2022-07-31T01:51:41.665Z,7.80
2022-07-31T01:54:08.817Z,5.63
2022-07-31T01:56:37.782Z,4.97
2022-07-31T01:59:05.728Z,3.80
2022-07-31T02:01:50.714Z,6.00
2022-07-31T02:04:19.817Z,5.70
2022-07-31T02:06:51.030Z,3.80
2022-07-31T02:09:19.952Z,7.13
2022-07-31T02:11:53.707Z,7.93
2022-07-31T02:14:22.830Z,5.60
2022-07-31T02:16:50.106Z,2.67
2022-07-31T02:19:17.338Z,2.88
2022-07-31T02:21:43.939Z,4.90
2022-07-31T02:24:10.551Z,3.78
2022-07-31T02:26:39.231Z,6.95
2022-07-31T02:29:08.531Z,2.97
2022-07-31T02:32:02.844Z,5.28
2022-07-31T02:34:31.549Z,6.40
2022-07-31T02:37:00.593Z,9.05
2022-07-31T02:39:30.594Z,5.43
2022-07-31T02:42:01.228Z,3.08
2022-07-31T02:44:31.200Z,4.72
2022-07-31T02:46:59.537Z,4.40
2022-07-31T02:49:27.687Z,4.35
2022-07-31T02:51:55.679Z,2.92
2022-07-31T02:54:24.879Z,2.92
2022-07-31T02:56:53.435Z,3.97
2022-07-31T03:01:47.039Z,6.78
2022-07-31T03:04:13.788Z,4.38
2022-07-31T03:06:40.451Z,3.97
2022-07-31T03:09:07.174Z,8.55
2022-07-31T03:11:33.702Z,3.90
2022-07-31T03:14:03.330Z,3.38
2022-07-31T03:16:31.257Z,4.05
2022-07-31T03:18:57.874Z,6.85
2022-07-31T03:21:25.216Z,3.85
2022-07-31T03:23:52.099Z,5.68
2022-07-31T03:26:19.058Z,10.73
2022-07-31T03:28:45.763Z,4.00
2022-07-31T03:31:12.405Z,5.28
2022-07-31T03:33:38.928Z,4.75
2022-07-31T03:36:06.098Z,4.55
2022-07-31T03:38:40.720Z,8.95
2022-07-31T03:41:09.215Z,3.70
2022-07-31T03:43:44.223Z,10.63
2022-07-31T03:46:17.331Z,5.93
2022-07-31T03:48:44.826Z,6.25
2022-07-31T03:51:11.540Z,4.50
2022-07-31T03:53:38.617Z,6.78
2022-07-31T03:56:07.178Z,4.88
2022-07-31T04:01:04.619Z,4.68
2022-07-31T04:03:34.866Z,7.18
2022-07-31T04:06:01.455Z,7.35
2022-07-31T04:08:27.982Z,4.50
2022-07-31T04:10:54.473Z,4.43
2022-07-31T04:13:20.997Z,5.55
2022-07-31T04:15:47.639Z,7.57
2022-07-31T04:18:14.164Z,6.85
2022-07-31T04:20:40.719Z,4.78
2022-07-31T04:23:07.311Z,7.03
2022-07-31T04:25:33.915Z,5.93
2022-07-31T04:28:01.433Z,4.57
2022-07-31T04:30:27.958Z,4.95
2022-07-31T04:32:54.497Z,4.60
2022-07-31T04:35:22.119Z,3.53
2022-07-31T04:37:48.747Z,5.23
2022-07-31T04:40:15.969Z,6.18
2022-07-31T04:42:42.677Z,8.57
2022-07-31T04:45:09.714Z,3.90
2022-07-31T04:47:37.141Z,4.97
2022-07-31T04:50:04.788Z,5.18
2022-07-31T04:52:31.322Z,4.83
2022-07-31T04:54:57.818Z,4.15
2022-07-31T04:57:24.339Z,3.20
2022-07-31T04:59:57.837Z,6.60
2022-07-31T05:02:26.571Z,7.15
2022-07-31T05:04:56.635Z,5.90
2022-07-31T05:07:24.079Z,4.35
2022-07-31T05:09:54.205Z,4.93
2022-07-31T05:12:20.737Z,5.75
2022-07-31T05:14:47.253Z,4.90
2022-07-31T05:17:13.859Z,8.93
2022-07-31T05:19:40.393Z,4.90
2022-07-31T05:22:07.223Z,3.90
2022-07-31T05:24:34.315Z,4.68
2022-07-31T05:27:02.463Z,3.75
2022-07-31T05:29:29.693Z,3.70
2022-07-31T05:31:59.574Z,5.65
2022-07-31T05:34:26.659Z,7.03
2022-07-31T05:36:56.412Z,5.95
2022-07-31T05:39:23.026Z,5.30
2022-07-31T05:41:51.363Z,8.38
2022-07-31T05:44:17.864Z,6.95
2022-07-31T05:46:44.357Z,4.90
2022-07-31T05:49:11.007Z,7.72
2022-07-31T05:51:37.610Z,14.48
2022-07-31T05:54:04.144Z,7.47
2022-07-31T05:56:30.625Z,8.48
2022-07-31T05:58:57.122Z,6.05
2022-07-31T06:01:24.158Z,6.95
2022-07-31T06:03:52.120Z,6.00
2022-07-31T06:06:19.226Z,7.93
2022-07-31T06:08:45.790Z,10.38
2022-07-31T06:11:12.327Z,6.88
2022-07-31T06:13:38.917Z,3.80
2022-07-31T06:16:12.106Z,4.45
2022-07-31T06:18:38.618Z,5.22
2022-07-31T06:21:05.156Z,4.30
2022-07-31T06:23:32.328Z,3.72
2022-07-31T06:25:59.011Z,5.00
2022-07-31T06:28:37.845Z,3.95
2022-07-31T06:31:22.083Z,4.95
2022-07-31T06:33:49.678Z,9.30
2022-07-31T06:36:17.436Z,6.15
2022-07-31T06:38:43.943Z,4.25
2022-07-31T06:41:10.450Z,5.30
2022-07-31T06:43:37.126Z,5.72
2022-07-31T06:46:03.658Z,3.97
2022-07-31T06:48:30.189Z,4.80
2022-07-31T06:51:14.525Z,4.50
2022-07-31T06:53:43.236Z,5.68
2022-07-31T06:56:09.735Z,3.92
2022-07-31T06:58:36.270Z,5.65
2022-07-31T07:01:02.837Z,3.83
2022-07-31T07:03:29.432Z,4.35
2022-07-31T07:05:55.943Z,4.88
2022-07-31T07:08:22.597Z,5.63
2022-07-31T07:10:49.113Z,5.25
2022-07-31T07:13:15.617Z,2.95
2022-07-31T07:15:42.097Z,3.95
2022-07-31T07:18:08.619Z,5.30
2022-07-31T07:20:35.177Z,4.13
2022-07-31T07:23:01.675Z,5.53
2022-07-31T07:25:28.806Z,8.27
2022-07-31T07:27:56.667Z,4.65
2022-07-31T07:30:23.773Z,8.15
2022-07-31T07:32:50.278Z,3.45
2022-07-31T07:35:16.882Z,4.68
2022-07-31T07:37:43.368Z,4.93
2022-07-31T07:40:10.169Z,5.18
2022-07-31T07:42:36.672Z,4.85
2022-07-31T07:45:08.324Z,3.78
2022-07-31T07:48:02.271Z,3.15
2022-07-31T07:50:22.814Z,5.55
2022-07-31T07:52:54.200Z,4.72
2022-07-31T07:55:20.730Z,4.85
2022-07-31T07:57:47.268Z,9.25
2022-07-31T08:00:14.340Z,6.60
2022-07-31T08:02:42.571Z,5.90
2022-07-31T08:05:09.284Z,5.15
2022-07-31T08:07:41.833Z,8.35
2022-07-31T08:10:09.984Z,6.40
2022-07-31T08:12:37.003Z,6.22
2022-07-31T08:15:04.531Z,5.15
2022-07-31T08:17:31.180Z,4.80
2022-07-31T08:19:57.748Z,5.93
2022-07-31T08:22:24.271Z,5.30
2022-07-31T08:24:50.799Z,7.75
2022-07-31T08:27:39.577Z,7.15
2022-07-31T08:30:08.305Z,5.53
2022-07-31T08:32:34.940Z,6.25
2022-07-31T08:35:01.728Z,4.20
2022-07-31T08:38:01.378Z,6.80
2022-07-31T08:40:18.019Z,2.88
2022-07-31T08:42:46.280Z,6.13
2022-07-31T08:45:14.130Z,5.65
2022-07-31T08:47:42.220Z,2.50
2022-07-31T08:50:12.132Z,3.35
2022-07-31T08:52:41.887Z,7.13
2022-07-31T08:55:09.460Z,5.82
2022-07-31T08:57:36.959Z,4.33
2022-07-31T09:00:09.983Z,5.60
2022-07-31T09:02:39.204Z,4.38
2022-07-31T09:05:06.036Z,4.95
2022-07-31T09:07:32.523Z,6.03
2022-07-31T09:09:59.068Z,4.20
2022-07-31T09:12:34.475Z,13.45
2022-07-31T09:15:01.617Z,5.63
2022-07-31T09:17:33.382Z,3.53
2022-07-31T09:20:00.392Z,2.35
2022-07-31T09:22:31.350Z,3.28
2022-07-31T09:25:08.726Z,3.17
2022-07-31T09:27:35.225Z,3.00
2022-07-31T09:30:02.251Z,1.70
2022-07-31T09:32:28.751Z,2.42
2022-07-31T09:34:55.298Z,2.78
2022-07-31T09:37:25.780Z,2.90
2022-07-31T09:39:54.255Z,2.65
2022-07-31T09:44:50.031Z,3.80
2022-07-31T09:49:56.696Z,4.65
2022-07-31T09:52:23.258Z,5.00
2022-07-31T09:55:01.111Z,2.20
2022-07-31T09:57:28.108Z,3.90
2022-07-31T09:59:55.563Z,3.25
2022-07-31T10:02:27.920Z,3.70
2022-07-31T10:04:57.258Z,3.58
2022-07-31T10:07:32.686Z,2.63
2022-07-31T10:10:01.218Z,4.85
2022-07-31T10:12:29.745Z,5.32
2022-07-31T10:17:34.956Z,2.60
2022-07-31T10:20:05.612Z,8.73
2022-07-31T10:22:40.360Z,5.22
2022-07-31T10:25:12.652Z,5.63
2022-07-31T10:27:40.845Z,4.00
2022-07-31T10:30:08.450Z,2.35
2022-07-31T10:32:35.802Z,2.85
2022-07-31T10:35:05.810Z,5.07
2022-07-31T10:37:38.581Z,5.93
2022-07-31T10:40:33.947Z,3.35
2022-07-31T10:43:11.868Z,3.90
2022-07-31T10:45:51.976Z,5.20
2022-07-31T10:48:19.870Z,4.93
2022-07-31T10:50:47.359Z,3.38
2022-07-31T10:53:16.807Z,2.90
2022-07-31T10:55:43.956Z,4.30
2022-07-31T10:58:19.794Z,3.00
2022-07-31T11:00:46.354Z,3.38
2022-07-31T11:03:16.141Z,4.63
2022-07-31T11:06:01.004Z,2.42
2022-07-31T11:08:40.965Z,6.70
2022-07-31T11:11:07.614Z,2.40
2022-07-31T11:13:45.566Z,2.30
2022-07-31T11:16:12.329Z,5.80
2022-07-31T11:18:39.018Z,5.85
2022-07-31T11:21:38.063Z,1.58
2022-07-31T11:24:02.301Z,3.67
2022-07-31T11:26:33.026Z,3.63
2022-07-31T11:29:00.130Z,5.00
2022-07-31T11:31:46.647Z,2.75
2022-07-31T11:34:13.123Z,2.35
2022-07-31T11:36:44.112Z,1.60
2022-07-31T11:39:13.041Z,3.08
2022-07-31T11:41:44.354Z,1.33
2022-07-31T11:44:12.216Z,4.13
2022-07-31T11:46:38.757Z,1.80
2022-07-31T11:49:05.817Z,2.60
2022-07-31T11:51:32.392Z,2.90
2022-07-31T11:54:00.002Z,2.90
2022-07-31T11:56:27.671Z,4.78
2022-07-31T11:58:57.496Z,3.30
2022-07-31T12:01:27.328Z,3.70
2022-07-31T12:03:53.914Z,1.65
2022-07-31T12:06:21.674Z,2.47
2022-07-31T12:08:49.948Z,4.43
2022-07-31T12:11:20.581Z,3.53
2022-07-31T12:13:48.843Z,1.60
2022-07-31T12:16:16.375Z,4.80
2022-07-31T12:18:58.985Z,7.63
2022-07-31T12:21:33.946Z,2.92
2022-07-31T12:24:01.068Z,3.97
2022-07-31T12:26:30.511Z,3.15
2022-07-31T12:28:58.334Z,6.75
2022-07-31T12:31:25.386Z,4.10
2022-07-31T12:33:51.998Z,4.25
2022-07-31T12:36:18.709Z,4.78
2022-07-31T12:38:48.335Z,4.30
2022-07-31T12:41:15.656Z,5.18
2022-07-31T12:43:51.496Z,5.22
2022-07-31T12:46:34.928Z,4.40
2022-07-31T12:49:01.565Z,6.40
2022-07-31T12:51:44.986Z,4.85
2022-07-31T12:54:15.824Z,3.38
2022-07-31T12:56:43.000Z,4.22
2022-07-31T12:59:10.314Z,5.25
2022-07-31T13:01:37.553Z,5.65
2022-07-31T13:04:07.861Z,3.65
2022-07-31T13:06:44.585Z,4.68
2022-07-31T13:09:11.086Z,4.68
2022-07-31T13:11:46.680Z,2.92
2022-07-31T13:14:19.804Z,5.57
2022-07-31T13:16:48.430Z,5.65
2022-07-31T13:19:15.726Z,3.20
2022-07-31T13:21:49.195Z,3.95
2022-07-31T13:24:20.389Z,6.50
2022-07-31T13:26:48.399Z,5.55
2022-07-31T13:29:15.489Z,3.05
2022-07-31T13:31:42.205Z,5.85
2022-07-31T13:34:08.744Z,3.75
2022-07-31T13:36:38.815Z,4.45
2022-07-31T13:39:06.859Z,3.92
2022-07-31T13:41:35.319Z,5.30
2022-07-31T13:44:02.608Z,3.25
2022-07-31T13:46:29.434Z,9.65
2022-07-31T13:48:59.559Z,5.88
2022-07-31T13:51:28.935Z,3.88
2022-07-31T13:53:55.756Z,5.80
2022-07-31T13:56:34.044Z,3.00
2022-07-31T13:59:06.774Z,4.43
2022-07-31T14:02:03.325Z,4.18
2022-07-31T14:04:23.536Z,7.30
2022-07-31T14:06:50.723Z,3.58
2022-07-31T14:09:19.150Z,4.40
2022-07-31T14:11:45.749Z,4.80
2022-07-31T14:14:12.381Z,6.22
2022-07-31T14:16:39.533Z,6.45
2022-07-31T14:19:06.048Z,4.72
2022-07-31T14:21:34.546Z,3.80
2022-07-31T14:24:01.105Z,4.60
2022-07-31T14:26:27.598Z,4.70
2022-07-31T14:28:54.166Z,3.55
2022-07-31T14:31:20.736Z,5.70
2022-07-31T14:33:47.403Z,3.08
2022-07-31T14:36:14.582Z,7.55
2022-07-31T14:38:41.141Z,3.58
2022-07-31T14:41:07.671Z,2.85
2022-07-31T14:43:34.193Z,4.88
2022-07-31T14:46:00.695Z,6.10
2022-07-31T14:48:27.457Z,2.97
2022-07-31T14:50:54.189Z,2.83
2022-07-31T14:53:20.724Z,6.07
2022-07-31T14:55:47.276Z,3.10
2022-07-31T14:58:13.781Z,6.68
2022-07-31T15:00:40.381Z,2.70
2022-07-31T15:03:07.329Z,3.35
2022-07-31T15:06:39.238Z,3.03
2022-07-31T15:08:20.441Z,2.78
2022-07-31T15:10:46.954Z,3.92
2022-07-31T15:13:13.519Z,2.65
2022-07-31T15:15:40.028Z,3.22
2022-07-31T15:18:06.506Z,4.70
2022-07-31T15:20:35.275Z,3.10
2022-07-31T15:23:02.145Z,3.35
2022-07-31T15:25:28.799Z,3.22
2022-07-31T15:27:55.330Z,6.35
2022-07-31T15:30:22.627Z,3.45
2022-07-31T15:32:52.055Z,3.47
2022-07-31T15:35:18.678Z,5.30
2022-07-31T15:37:45.785Z,3.40
2022-07-31T15:40:17.071Z,8.25
2022-07-31T15:42:46.494Z,3.35
2022-07-31T15:45:15.878Z,4.43
2022-07-31T15:47:43.894Z,5.45
2022-07-31T15:50:12.682Z,4.80
2022-07-31T15:52:39.668Z,2.95
2022-07-31T15:55:07.396Z,5.30
2022-07-31T15:57:33.886Z,3.58
2022-07-31T16:00:00.801Z,3.22
2022-07-31T16:02:27.376Z,6.10
2022-07-31T16:04:55.597Z,3.67
2022-07-31T16:08:34.120Z,5.70
2022-07-31T16:10:17.665Z,3.65
2022-07-31T16:12:48.594Z,3.42
2022-07-31T16:15:17.007Z,5.88
2022-07-31T16:17:44.313Z,5.00
2022-07-31T16:20:25.315Z,5.00
2022-07-31T16:22:58.018Z,4.28
2022-07-31T16:25:25.849Z,4.97
2022-07-31T16:27:52.974Z,4.65
2022-07-31T16:30:19.670Z,3.65
2022-07-31T16:32:46.157Z,12.15
2022-07-31T16:35:13.027Z,11.95
2022-07-31T16:37:52.320Z,10.73
2022-07-31T16:40:26.876Z,11.93
2022-07-31T16:42:56.251Z,9.93
2022-07-31T16:45:22.845Z,6.82
2022-07-31T16:47:51.458Z,6.82
2022-07-31T16:50:18.795Z,6.50
2022-07-31T16:52:45.337Z,6.50
2022-07-31T16:55:11.915Z,6.70
2022-07-31T16:57:38.422Z,8.18
2022-07-31T17:00:05.531Z,9.50
2022-07-31T17:02:32.029Z,9.10
2022-07-31T17:04:58.521Z,10.23
2022-07-31T17:07:25.039Z,7.75
2022-07-31T17:09:51.754Z,7.03
2022-07-31T17:12:20.317Z,6.80
2022-07-31T17:14:48.509Z,7.35
2022-07-31T17:17:15.638Z,7.80
2022-07-31T17:19:46.549Z,5.78
2022-07-31T17:22:17.501Z,8.38
2022-07-31T17:24:50.705Z,7.63
2022-07-31T17:27:18.379Z,6.68
2022-07-31T17:29:45.206Z,5.38
2022-07-31T17:32:11.783Z,5.65
2022-07-31T17:34:39.242Z,7.07
2022-07-31T17:37:07.072Z,6.03
2022-07-31T17:39:33.927Z,5.82
2022-07-31T17:42:00.538Z,6.00
2022-07-31T17:44:27.367Z,11.75
2022-07-31T17:46:54.786Z,6.57
2022-07-31T17:49:21.463Z,5.75
2022-07-31T17:51:59.234Z,5.63
2022-07-31T17:54:34.889Z,8.85
2022-07-31T17:57:02.088Z,6.03
2022-07-31T17:59:29.150Z,6.32
2022-07-31T18:02:02.078Z,5.70
2022-07-31T18:04:31.374Z,6.07
2022-07-31T18:06:58.979Z,5.85
2022-07-31T18:09:25.860Z,6.30
2022-07-31T18:11:53.433Z,6.55
2022-07-31T18:14:20.867Z,6.23
2022-07-31T18:16:51.625Z,7.20
2022-07-31T18:19:18.315Z,7.63
2022-07-31T18:21:44.836Z,6.18
2022-07-31T18:24:11.310Z,5.85
2022-07-31T18:26:37.888Z,8.25
2022-07-31T18:29:05.075Z,6.18
2022-07-31T18:31:35.365Z,9.18
2022-07-31T18:34:04.529Z,6.45
2022-07-31T18:38:58.508Z,6.75
2022-07-31T18:41:25.055Z,12.10
2022-07-31T18:43:51.612Z,9.05
2022-07-31T18:46:19.911Z,7.40
2022-07-31T18:48:46.607Z,6.30
2022-07-31T18:51:13.238Z,5.50
2022-07-31T18:53:39.887Z,7.78
2022-07-31T18:56:06.411Z,7.20
2022-07-31T18:58:32.972Z,7.43
2022-07-31T19:00:59.524Z,5.38
2022-07-31T19:03:26.509Z,7.78
2022-07-31T19:05:53.601Z,7.25
2022-07-31T19:08:20.708Z,5.00
2022-07-31T19:10:49.337Z,7.13
2022-07-31T19:13:19.180Z,7.72
2022-07-31T19:15:47.446Z,8.52
2022-07-31T19:18:15.146Z,7.40
2022-07-31T19:21:00.295Z,13.13
2022-07-31T19:23:31.983Z,5.80
2022-07-31T19:26:03.674Z,6.82
2022-07-31T19:28:34.546Z,5.97
2022-07-31T19:31:01.150Z,5.40
2022-07-31T19:33:27.709Z,7.10
2022-07-31T19:36:00.882Z,5.40
2022-07-31T19:38:28.783Z,7.07
2022-07-31T19:40:55.509Z,6.38
2022-07-31T19:43:22.251Z,7.10
2022-07-31T19:46:00.545Z,6.93
2022-07-31T19:48:36.605Z,7.05
2022-07-31T19:51:03.517Z,6.88
2022-07-31T19:53:30.379Z,6.43
2022-07-31T19:55:57.397Z,9.20
2022-07-31T19:58:23.965Z,6.03
2022-07-31T20:00:50.524Z,7.28
2022-07-31T20:03:17.157Z,7.18
2022-07-31T20:05:43.744Z,8.07
2022-07-31T20:08:10.462Z,8.23
2022-07-31T20:10:37.233Z,7.80
2022-07-31T20:13:03.992Z,10.88
2022-07-31T20:15:50.863Z,11.73
2022-07-31T20:18:27.697Z,8.07
2022-07-31T20:21:06.834Z,10.43
2022-07-31T20:23:36.666Z,7.78
2022-07-31T20:26:03.551Z,8.30
2022-07-31T20:28:30.116Z,9.88
2022-07-31T20:30:56.725Z,6.20
2022-07-31T20:33:23.309Z,10.43
2022-07-31T20:35:50.596Z,13.05
2022-07-31T20:38:21.302Z,12.43
2022-07-31T20:40:53.485Z,10.55
2022-07-31T20:43:26.775Z,9.73
2022-07-31T20:45:57.077Z,9.52
2022-07-31T20:48:27.206Z,11.13
2022-07-31T20:50:53.776Z,9.82
2022-07-31T20:53:21.613Z,9.90
2022-07-31T20:55:50.054Z,8.68
2022-07-31T21:00:45.345Z,7.45
2022-07-31T21:03:11.857Z,10.23
2022-07-31T21:05:38.477Z,9.60
2022-07-31T21:08:05.124Z,7.50
2022-07-31T21:10:31.765Z,8.50
2022-07-31T21:12:58.333Z,8.23
2022-07-31T21:15:40.951Z,10.05
2022-07-31T21:18:08.161Z,9.55
2022-07-31T21:20:52.013Z,10.48
2022-07-31T21:23:25.545Z,11.68
2022-07-31T21:25:54.097Z,12.80
2022-07-31T21:30:47.772Z,12.07
2022-07-31T21:33:14.688Z,11.13
2022-07-31T21:35:41.495Z,9.98
2022-07-31T21:38:11.914Z,16.70
2022-07-31T21:40:40.302Z,13.63
2022-07-31T21:43:07.326Z,10.98
2022-07-31T21:45:50.809Z,12.07
2022-07-31T21:48:22.753Z,14.13
2022-07-31T21:50:49.678Z,9.57
2022-07-31T21:53:16.335Z,11.93
2022-07-31T21:55:42.906Z,10.05
2022-07-31T21:58:09.732Z,12.43
2022-07-31T22:00:36.935Z,10.55
2022-07-31T22:03:04.263Z,12.40
2022-07-31T22:05:50.267Z,12.55
2022-07-31T22:08:17.228Z,9.88
2022-07-31T22:10:44.426Z,15.57
2022-07-31T22:13:11.017Z,10.15
2022-07-31T22:15:55.386Z,10.77
2022-07-31T22:18:26.518Z,9.43
2022-07-31T22:20:53.890Z,12.32
2022-07-31T22:23:21.116Z,10.63
2022-07-31T22:25:49.081Z,13.85
2022-07-31T22:28:18.962Z,12.50
2022-07-31T22:30:46.256Z,11.75
2022-07-31T22:33:12.916Z,11.82
2022-07-31T22:35:40.812Z,8.85
2022-07-31T22:38:08.824Z,11.95
2022-07-31T22:40:35.724Z,12.75
2022-07-31T22:43:03.467Z,14.02
2022-07-31T22:45:30.430Z,12.23
2022-07-31T22:47:57.627Z,14.93
2022-07-31T22:50:24.485Z,13.25
2022-07-31T22:52:51.529Z,10.23
2022-07-31T22:55:18.128Z,18.63
2022-07-31T22:57:45.030Z,14.13
2022-07-31T23:00:15.434Z,9.82
2022-07-31T23:02:42.964Z,13.45
2022-07-31T23:05:10.423Z,16.50
2022-07-31T23:07:37.605Z,15.13
2022-07-31T23:10:07.901Z,12.80
2022-07-31T23:12:34.712Z,17.30
2022-07-31T23:15:01.226Z,19.50
2022-07-31T23:17:27.731Z,14.05
2022-07-31T23:19:54.808Z,17.88
2022-07-31T23:22:33.404Z,18.45
2022-07-31T23:25:03.409Z,12.15
2022-07-31T23:27:29.945Z,13.25
2022-07-31T23:29:56.524Z,16.70
2022-07-31T23:32:22.991Z,14.95
2022-07-31T23:34:49.501Z,13.55
2022-07-31T23:37:16.006Z,15.98
2022-07-31T23:39:42.527Z,15.05
2022-07-31T23:42:27.493Z,14.57
2022-07-31T23:44:54.060Z,13.10
2022-07-31T23:47:23.788Z,15.50
2022-07-31T23:49:50.302Z,18.08
2022-07-31T23:52:16.783Z,14.50
2022-07-31T23:54:43.298Z,15.90
2022-07-31T23:57:09.811Z,18.92
2022-07-31T23:59:36.351Z,19.65
